sensor_id;sensor_type;location;lat;lon;timestamp;pressure;altitude;pressure_sealevel;temperature
20736;BMP180;10528;52.124;5.196;2023-01-13T00:00:14;100162.00;;;15.40
20736;BMP180;10528;52.124;5.196;2023-01-13T00:02:42;100151.00;;;15.40
20736;BMP180;10528;52.124;5.196;2023-01-13T00:05:09;100160.00;;;15.40
20736;BMP180;10528;52.124;5.196;2023-01-13T00:07:36;100147.00;;;15.30
20736;BMP180;10528;52.124;5.196;2023-01-13T00:10:10;100147.00;;;15.30
20736;BMP180;10528;52.124;5.196;2023-01-13T00:12:40;100158.00;;;15.30
20736;BMP180;10528;52.124;5.196;2023-01-13T00:15:09;100161.00;;;15.30
20736;BMP180;10528;52.124;5.196;2023-01-13T00:17:36;100149.00;;;15.30
20736;BMP180;10528;52.124;5.196;2023-01-13T00:20:05;100149.00;;;15.20
20736;BMP180;10528;52.124;5.196;2023-01-13T00:22:34;100161.00;;;15.20
20736;BMP180;10528;52.124;5.196;2023-01-13T00:25:02;100162.00;;;15.10
20736;BMP180;10528;52.124;5.196;2023-01-13T00:27:30;100170.00;;;15.10
20736;BMP180;10528;52.124;5.196;2023-01-13T00:29:57;100171.00;;;15.10
20736;BMP180;10528;52.124;5.196;2023-01-13T00:32:25;100159.00;;;15.10
20736;BMP180;10528;52.124;5.196;2023-01-13T00:34:52;100166.00;;;15.10
20736;BMP180;10528;52.124;5.196;2023-01-13T00:37:19;100163.00;;;15.10
20736;BMP180;10528;52.124;5.196;2023-01-13T00:39:46;100153.00;;;15.10
20736;BMP180;10528;52.124;5.196;2023-01-13T00:42:13;100159.00;;;15.10
20736;BMP180;10528;52.124;5.196;2023-01-13T00:44:58;100156.00;;;15.00
20736;BMP180;10528;52.124;5.196;2023-01-13T00:47:25;100147.00;;;15.00
20736;BMP180;10528;52.124;5.196;2023-01-13T00:49:52;100150.00;;;15.00
20736;BMP180;10528;52.124;5.196;2023-01-13T00:52:19;100149.00;;;15.00
20736;BMP180;10528;52.124;5.196;2023-01-13T00:54:45;100133.00;;;15.00
20736;BMP180;10528;52.124;5.196;2023-01-13T00:57:12;100120.00;;;15.00
20736;BMP180;10528;52.124;5.196;2023-01-13T00:59:40;100133.00;;;15.10
20736;BMP180;10528;52.124;5.196;2023-01-13T01:02:07;100122.00;;;15.10
20736;BMP180;10528;52.124;5.196;2023-01-13T01:04:34;100122.00;;;15.10
20736;BMP180;10528;52.124;5.196;2023-01-13T01:07:01;100120.00;;;15.10
20736;BMP180;10528;52.124;5.196;2023-01-13T01:09:28;100116.00;;;15.10
20736;BMP180;10528;52.124;5.196;2023-01-13T01:11:59;100112.00;;;15.10
20736;BMP180;10528;52.124;5.196;2023-01-13T01:14:26;100117.00;;;15.00
20736;BMP180;10528;52.124;5.196;2023-01-13T01:16:53;100120.00;;;15.00
20736;BMP180;10528;52.124;5.196;2023-01-13T01:19:20;100107.00;;;14.90
20736;BMP180;10528;52.124;5.196;2023-01-13T01:21:47;100105.00;;;15.00
20736;BMP180;10528;52.124;5.196;2023-01-13T01:24:14;100097.00;;;14.90
20736;BMP180;10528;52.124;5.196;2023-01-13T01:26:42;100093.00;;;14.90
20736;BMP180;10528;52.124;5.196;2023-01-13T01:29:12;100103.00;;;14.90
20736;BMP180;10528;52.124;5.196;2023-01-13T01:31:41;100118.00;;;14.90
20736;BMP180;10528;52.124;5.196;2023-01-13T01:34:08;100114.00;;;14.90
20736;BMP180;10528;52.124;5.196;2023-01-13T01:36:35;100135.00;;;14.90
20736;BMP180;10528;52.124;5.196;2023-01-13T01:39:03;100130.00;;;14.80
20736;BMP180;10528;52.124;5.196;2023-01-13T01:41:33;100135.00;;;14.90
20736;BMP180;10528;52.124;5.196;2023-01-13T01:46:42;100142.00;;;14.80
20736;BMP180;10528;52.124;5.196;2023-01-13T01:51:52;100122.00;;;14.80
20736;BMP180;10528;52.124;5.196;2023-01-13T01:56:58;100127.00;;;14.80
20736;BMP180;10528;52.124;5.196;2023-01-13T01:59:30;100116.00;;;14.80
20736;BMP180;10528;52.124;5.196;2023-01-13T02:01:57;100116.00;;;14.80
20736;BMP180;10528;52.124;5.196;2023-01-13T02:04:33;100102.00;;;14.80
20736;BMP180;10528;52.124;5.196;2023-01-13T02:07:02;100114.00;;;14.80
20736;BMP180;10528;52.124;5.196;2023-01-13T02:09:30;100102.00;;;14.80
20736;BMP180;10528;52.124;5.196;2023-01-13T02:11:58;100105.00;;;14.80
20736;BMP180;10528;52.124;5.196;2023-01-13T02:14:44;100109.00;;;14.70
20736;BMP180;10528;52.124;5.196;2023-01-13T02:20:19;100111.00;;;14.70
20736;BMP180;10528;52.124;5.196;2023-01-13T02:38:53;100081.00;;;14.60
20736;BMP180;10528;52.124;5.196;2023-01-13T02:41:40;100069.00;;;14.60
20736;BMP180;10528;52.124;5.196;2023-01-13T02:44:37;100060.00;;;14.70
20736;BMP180;10528;52.124;5.196;2023-01-13T02:47:17;100066.00;;;14.70
20736;BMP180;10528;52.124;5.196;2023-01-13T02:49:49;100067.00;;;14.70
20736;BMP180;10528;52.124;5.196;2023-01-13T02:52:28;100070.00;;;14.70
20736;BMP180;10528;52.124;5.196;2023-01-13T02:55:06;100081.00;;;14.80
20736;BMP180;10528;52.124;5.196;2023-01-13T02:57:36;100091.00;;;14.80
20736;BMP180;10528;52.124;5.196;2023-01-13T03:00:06;100065.00;;;14.80
20736;BMP180;10528;52.124;5.196;2023-01-13T03:02:34;100084.00;;;14.80
20736;BMP180;10528;52.124;5.196;2023-01-13T03:05:01;100087.00;;;14.70
20736;BMP180;10528;52.124;5.196;2023-01-13T03:07:56;100080.00;;;14.70
20736;BMP180;10528;52.124;5.196;2023-01-13T03:11:03;100078.00;;;14.70
20736;BMP180;10528;52.124;5.196;2023-01-13T03:13:45;100075.00;;;14.70
20736;BMP180;10528;52.124;5.196;2023-01-13T03:19:40;100069.00;;;14.50
20736;BMP180;10528;52.124;5.196;2023-01-13T03:22:30;100060.00;;;14.60
20736;BMP180;10528;52.124;5.196;2023-01-13T03:25:17;100069.00;;;14.60
20736;BMP180;10528;52.124;5.196;2023-01-13T03:27:56;100064.00;;;14.60
20736;BMP180;10528;52.124;5.196;2023-01-13T03:33:25;100067.00;;;14.50
20736;BMP180;10528;52.124;5.196;2023-01-13T03:35:58;100081.00;;;14.50
20736;BMP180;10528;52.124;5.196;2023-01-13T03:38:33;100069.00;;;14.60
20736;BMP180;10528;52.124;5.196;2023-01-13T03:41:12;100090.00;;;14.60
20736;BMP180;10528;52.124;5.196;2023-01-13T03:43:49;100059.00;;;14.60
20736;BMP180;10528;52.124;5.196;2023-01-13T03:47:02;100070.00;;;14.60
20736;BMP180;10528;52.124;5.196;2023-01-13T03:50:01;100064.00;;;14.40
20736;BMP180;10528;52.124;5.196;2023-01-13T03:52:39;100067.00;;;14.60
20736;BMP180;10528;52.124;5.196;2023-01-13T03:55:25;100078.00;;;14.70
20736;BMP180;10528;52.124;5.196;2023-01-13T04:00:35;100070.00;;;14.70
20736;BMP180;10528;52.124;5.196;2023-01-13T04:03:06;100070.00;;;14.70
20736;BMP180;10528;52.124;5.196;2023-01-13T04:05:41;100066.00;;;14.70
20736;BMP180;10528;52.124;5.196;2023-01-13T04:08:20;100069.00;;;14.70
20736;BMP180;10528;52.124;5.196;2023-01-13T04:11:10;100063.00;;;14.60
20736;BMP180;10528;52.124;5.196;2023-01-13T04:13:42;100070.00;;;14.50
20736;BMP180;10528;52.124;5.196;2023-01-13T04:16:11;100066.00;;;14.60
20736;BMP180;10528;52.124;5.196;2023-01-13T04:18:39;100073.00;;;14.60
20736;BMP180;10528;52.124;5.196;2023-01-13T04:21:07;100067.00;;;14.60
20736;BMP180;10528;52.124;5.196;2023-01-13T04:23:34;100063.00;;;14.60
20736;BMP180;10528;52.124;5.196;2023-01-13T04:26:02;100061.00;;;14.50
20736;BMP180;10528;52.124;5.196;2023-01-13T04:28:29;100067.00;;;14.50
20736;BMP180;10528;52.124;5.196;2023-01-13T04:30:55;100073.00;;;14.50
20736;BMP180;10528;52.124;5.196;2023-01-13T04:33:23;100080.00;;;14.50
20736;BMP180;10528;52.124;5.196;2023-01-13T04:35:50;100077.00;;;14.50
20736;BMP180;10528;52.124;5.196;2023-01-13T04:38:20;100073.00;;;14.50
20736;BMP180;10528;52.124;5.196;2023-01-13T04:40:47;100067.00;;;14.50
20736;BMP180;10528;52.124;5.196;2023-01-13T04:43:14;100073.00;;;14.50
20736;BMP180;10528;52.124;5.196;2023-01-13T04:45:42;100070.00;;;14.40
20736;BMP180;10528;52.124;5.196;2023-01-13T04:48:09;100067.00;;;14.40
20736;BMP180;10528;52.124;5.196;2023-01-13T04:50:36;100077.00;;;14.40
20736;BMP180;10528;52.124;5.196;2023-01-13T04:53:03;100081.00;;;14.40
20736;BMP180;10528;52.124;5.196;2023-01-13T04:55:31;100093.00;;;14.30
20736;BMP180;10528;52.124;5.196;2023-01-13T04:58:07;100085.00;;;14.40
20736;BMP180;10528;52.124;5.196;2023-01-13T05:00:35;100087.00;;;14.40
20736;BMP180;10528;52.124;5.196;2023-01-13T05:03:03;100076.00;;;14.40
20736;BMP180;10528;52.124;5.196;2023-01-13T05:05:30;100083.00;;;14.30
20736;BMP180;10528;52.124;5.196;2023-01-13T05:07:57;100087.00;;;14.30
20736;BMP180;10528;52.124;5.196;2023-01-13T05:10:25;100089.00;;;14.40
20736;BMP180;10528;52.124;5.196;2023-01-13T05:12:53;100086.00;;;14.30
20736;BMP180;10528;52.124;5.196;2023-01-13T05:15:39;100078.00;;;14.30
20736;BMP180;10528;52.124;5.196;2023-01-13T05:18:27;100090.00;;;14.40
20736;BMP180;10528;52.124;5.196;2023-01-13T05:20:55;100092.00;;;14.30
20736;BMP180;10528;52.124;5.196;2023-01-13T05:23:22;100084.00;;;14.40
20736;BMP180;10528;52.124;5.196;2023-01-13T05:26:08;100085.00;;;14.40
20736;BMP180;10528;52.124;5.196;2023-01-13T05:28:35;100082.00;;;14.30
20736;BMP180;10528;52.124;5.196;2023-01-13T05:31:02;100100.00;;;14.40
20736;BMP180;10528;52.124;5.196;2023-01-13T05:33:29;100087.00;;;14.40
20736;BMP180;10528;52.124;5.196;2023-01-13T05:36:00;100084.00;;;14.40
20736;BMP180;10528;52.124;5.196;2023-01-13T05:38:28;100081.00;;;14.40
20736;BMP180;10528;52.124;5.196;2023-01-13T05:40:58;100081.00;;;14.20
20736;BMP180;10528;52.124;5.196;2023-01-13T05:43:44;100087.00;;;14.30
20736;BMP180;10528;52.124;5.196;2023-01-13T05:46:11;100084.00;;;14.30
20736;BMP180;10528;52.124;5.196;2023-01-13T05:48:41;100090.00;;;14.30
20736;BMP180;10528;52.124;5.196;2023-01-13T05:51:11;100081.00;;;14.40
20736;BMP180;10528;52.124;5.196;2023-01-13T05:53:38;100083.00;;;14.40
20736;BMP180;10528;52.124;5.196;2023-01-13T05:56:09;100079.00;;;14.40
20736;BMP180;10528;52.124;5.196;2023-01-13T05:58:36;100085.00;;;14.40
20736;BMP180;10528;52.124;5.196;2023-01-13T06:01:06;100079.00;;;14.40
20736;BMP180;10528;52.124;5.196;2023-01-13T06:03:33;100093.00;;;14.40
20736;BMP180;10528;52.124;5.196;2023-01-13T06:06:00;100105.00;;;14.40
20736;BMP180;10528;52.124;5.196;2023-01-13T06:08:30;100091.00;;;14.40
20736;BMP180;10528;52.124;5.196;2023-01-13T06:10:57;100104.00;;;14.40
20736;BMP180;10528;52.124;5.196;2023-01-13T06:13:25;100091.00;;;14.30
20736;BMP180;10528;52.124;5.196;2023-01-13T06:15:57;100102.00;;;14.40
20736;BMP180;10528;52.124;5.196;2023-01-13T06:18:24;100093.00;;;14.30
20736;BMP180;10528;52.124;5.196;2023-01-13T06:20:52;100101.00;;;14.40
20736;BMP180;10528;52.124;5.196;2023-01-13T06:23:19;100097.00;;;14.40
20736;BMP180;10528;52.124;5.196;2023-01-13T06:26:01;100100.00;;;14.40
20736;BMP180;10528;52.124;5.196;2023-01-13T06:28:29;100104.00;;;14.40
20736;BMP180;10528;52.124;5.196;2023-01-13T06:31:01;100097.00;;;14.40
20736;BMP180;10528;52.124;5.196;2023-01-13T06:33:38;100099.00;;;14.40
20736;BMP180;10528;52.124;5.196;2023-01-13T06:36:15;100094.00;;;14.40
20736;BMP180;10528;52.124;5.196;2023-01-13T06:38:46;100091.00;;;14.40
20736;BMP180;10528;52.124;5.196;2023-01-13T06:41:14;100108.00;;;14.40
20736;BMP180;10528;52.124;5.196;2023-01-13T06:43:42;100104.00;;;14.40
20736;BMP180;10528;52.124;5.196;2023-01-13T06:46:09;100106.00;;;14.40
20736;BMP180;10528;52.124;5.196;2023-01-13T06:48:35;100111.00;;;14.40
20736;BMP180;10528;52.124;5.196;2023-01-13T06:51:06;100113.00;;;14.50
20736;BMP180;10528;52.124;5.196;2023-01-13T06:53:33;100115.00;;;14.50
20736;BMP180;10528;52.124;5.196;2023-01-13T06:56:00;100115.00;;;14.50
20736;BMP180;10528;52.124;5.196;2023-01-13T06:58:27;100102.00;;;14.50
20736;BMP180;10528;52.124;5.196;2023-01-13T07:00:59;100117.00;;;14.50
20736;BMP180;10528;52.124;5.196;2023-01-13T07:03:26;100097.00;;;14.50
20736;BMP180;10528;52.124;5.196;2023-01-13T07:05:54;100104.00;;;14.50
20736;BMP180;10528;52.124;5.196;2023-01-13T07:08:23;100114.00;;;14.60
20736;BMP180;10528;52.124;5.196;2023-01-13T07:10:50;100100.00;;;14.50
20736;BMP180;10528;52.124;5.196;2023-01-13T07:13:19;100105.00;;;14.60
20736;BMP180;10528;52.124;5.196;2023-01-13T07:16:07;100102.00;;;14.50
20736;BMP180;10528;52.124;5.196;2023-01-13T07:18:35;100103.00;;;14.60
20736;BMP180;10528;52.124;5.196;2023-01-13T07:21:10;100096.00;;;14.60
20736;BMP180;10528;52.124;5.196;2023-01-13T07:23:40;100102.00;;;14.60
20736;BMP180;10528;52.124;5.196;2023-01-13T07:26:08;100097.00;;;14.40
20736;BMP180;10528;52.124;5.196;2023-01-13T07:28:37;100106.00;;;14.60
20736;BMP180;10528;52.124;5.196;2023-01-13T07:31:10;100111.00;;;14.50
20736;BMP180;10528;52.124;5.196;2023-01-13T07:33:38;100114.00;;;14.50
20736;BMP180;10528;52.124;5.196;2023-01-13T07:36:05;100113.00;;;14.50
20736;BMP180;10528;52.124;5.196;2023-01-13T07:38:34;100116.00;;;14.60
20736;BMP180;10528;52.124;5.196;2023-01-13T07:41:01;100113.00;;;14.60
20736;BMP180;10528;52.124;5.196;2023-01-13T07:43:46;100140.00;;;14.60
20736;BMP180;10528;52.124;5.196;2023-01-13T07:46:14;100133.00;;;14.70
20736;BMP180;10528;52.124;5.196;2023-01-13T07:48:41;100135.00;;;14.60
20736;BMP180;10528;52.124;5.196;2023-01-13T07:51:10;100146.00;;;14.60
20736;BMP180;10528;52.124;5.196;2023-01-13T07:53:38;100137.00;;;14.70
20736;BMP180;10528;52.124;5.196;2023-01-13T07:56:07;100149.00;;;14.70
20736;BMP180;10528;52.124;5.196;2023-01-13T07:58:35;100142.00;;;14.80
20736;BMP180;10528;52.124;5.196;2023-01-13T08:01:11;100145.00;;;14.70
20736;BMP180;10528;52.124;5.196;2023-01-13T08:03:41;100153.00;;;14.50
20736;BMP180;10528;52.124;5.196;2023-01-13T08:06:10;100149.00;;;14.70
20736;BMP180;10528;52.124;5.196;2023-01-13T08:08:37;100159.00;;;14.80
20736;BMP180;10528;52.124;5.196;2023-01-13T08:11:06;100143.00;;;14.60
20736;BMP180;10528;52.124;5.196;2023-01-13T08:13:34;100164.00;;;14.80
20736;BMP180;10528;52.124;5.196;2023-01-13T08:16:11;100156.00;;;14.90
20736;BMP180;10528;52.124;5.196;2023-01-13T08:18:40;100167.00;;;14.80
20736;BMP180;10528;52.124;5.196;2023-01-13T08:21:13;100158.00;;;14.90
20736;BMP180;10528;52.124;5.196;2023-01-13T08:23:44;100152.00;;;14.60
20736;BMP180;10528;52.124;5.196;2023-01-13T08:26:15;100166.00;;;14.60
20736;BMP180;10528;52.124;5.196;2023-01-13T08:28:43;100167.00;;;14.70
20736;BMP180;10528;52.124;5.196;2023-01-13T08:31:14;100176.00;;;14.80
20736;BMP180;10528;52.124;5.196;2023-01-13T08:33:43;100162.00;;;14.90
20736;BMP180;10528;52.124;5.196;2023-01-13T08:36:11;100155.00;;;14.60
20736;BMP180;10528;52.124;5.196;2023-01-13T08:38:39;100180.00;;;14.70
20736;BMP180;10528;52.124;5.196;2023-01-13T08:41:15;100171.00;;;14.50
20736;BMP180;10528;52.124;5.196;2023-01-13T08:44:02;100185.00;;;14.30
20736;BMP180;10528;52.124;5.196;2023-01-13T08:46:29;100175.00;;;14.30
20736;BMP180;10528;52.124;5.196;2023-01-13T08:48:56;100191.00;;;14.50
20736;BMP180;10528;52.124;5.196;2023-01-13T08:51:23;100194.00;;;14.40
20736;BMP180;10528;52.124;5.196;2023-01-13T08:53:49;100183.00;;;14.40
20736;BMP180;10528;52.124;5.196;2023-01-13T08:56:16;100190.00;;;14.60
20736;BMP180;10528;52.124;5.196;2023-01-13T08:58:43;100190.00;;;14.60
20736;BMP180;10528;52.124;5.196;2023-01-13T09:01:14;100201.00;;;14.40
20736;BMP180;10528;52.124;5.196;2023-01-13T09:03:42;100190.00;;;14.40
20736;BMP180;10528;52.124;5.196;2023-01-13T09:06:09;100210.00;;;14.50
20736;BMP180;10528;52.124;5.196;2023-01-13T09:08:36;100219.00;;;14.30
20736;BMP180;10528;52.124;5.196;2023-01-13T09:11:03;100217.00;;;14.20
20736;BMP180;10528;52.124;5.196;2023-01-13T09:13:50;100231.00;;;14.40
20736;BMP180;10528;52.124;5.196;2023-01-13T09:16:17;100228.00;;;14.50
20736;BMP180;10528;52.124;5.196;2023-01-13T09:18:44;100230.00;;;14.60
20736;BMP180;10528;52.124;5.196;2023-01-13T09:21:11;100240.00;;;14.10
20736;BMP180;10528;52.124;5.196;2023-01-13T09:23:38;100249.00;;;14.20
20736;BMP180;10528;52.124;5.196;2023-01-13T09:26:05;100236.00;;;14.40
20736;BMP180;10528;52.124;5.196;2023-01-13T09:28:32;100248.00;;;14.60
20736;BMP180;10528;52.124;5.196;2023-01-13T09:31:02;100247.00;;;14.60
20736;BMP180;10528;52.124;5.196;2023-01-13T09:33:29;100243.00;;;14.60
20736;BMP180;10528;52.124;5.196;2023-01-13T09:36:14;100257.00;;;14.60
20736;BMP180;10528;52.124;5.196;2023-01-13T09:38:41;100249.00;;;14.70
20736;BMP180;10528;52.124;5.196;2023-01-13T09:41:22;100252.00;;;14.60
20736;BMP180;10528;52.124;5.196;2023-01-13T09:44:51;100246.00;;;14.80
20736;BMP180;10528;52.124;5.196;2023-01-13T09:47:33;100253.00;;;14.80
20736;BMP180;10528;52.124;5.196;2023-01-13T09:52:41;100267.00;;;14.90
20736;BMP180;10528;52.124;5.196;2023-01-13T09:55:22;100268.00;;;14.80
20736;BMP180;10528;52.124;5.196;2023-01-13T09:57:51;100268.00;;;14.90
20736;BMP180;10528;52.124;5.196;2023-01-13T10:00:22;100266.00;;;14.90
20736;BMP180;10528;52.124;5.196;2023-01-13T10:03:28;100272.00;;;14.80
20736;BMP180;10528;52.124;5.196;2023-01-13T10:06:35;100265.00;;;14.90
20736;BMP180;10528;52.124;5.196;2023-01-13T10:09:05;100284.00;;;15.00
20736;BMP180;10528;52.124;5.196;2023-01-13T10:11:38;100276.00;;;15.00
20736;BMP180;10528;52.124;5.196;2023-01-13T10:14:40;100266.00;;;14.80
20736;BMP180;10528;52.124;5.196;2023-01-13T10:23:11;100290.00;;;15.00
20736;BMP180;10528;52.124;5.196;2023-01-13T10:26:04;100304.00;;;15.00
20736;BMP180;10528;52.124;5.196;2023-01-13T10:28:36;100293.00;;;14.70
20736;BMP180;10528;52.124;5.196;2023-01-13T10:31:10;100305.00;;;14.80
20736;BMP180;10528;52.124;5.196;2023-01-13T10:33:37;100311.00;;;14.90
20736;BMP180;10528;52.124;5.196;2023-01-13T10:36:15;100314.00;;;14.80
20736;BMP180;10528;52.124;5.196;2023-01-13T10:38:45;100323.00;;;15.00
20736;BMP180;10528;52.124;5.196;2023-01-13T10:44:04;100318.00;;;15.10
20736;BMP180;10528;52.124;5.196;2023-01-13T10:46:54;100321.00;;;15.00
20736;BMP180;10528;52.124;5.196;2023-01-13T10:49:35;100326.00;;;15.10
20736;BMP180;10528;52.124;5.196;2023-01-13T10:52:27;100326.00;;;15.10
20736;BMP180;10528;52.124;5.196;2023-01-13T10:54:54;100337.00;;;15.10
20736;BMP180;10528;52.124;5.196;2023-01-13T10:57:26;100318.00;;;15.10
20736;BMP180;10528;52.124;5.196;2023-01-13T10:59:54;100335.00;;;15.10
20736;BMP180;10528;52.124;5.196;2023-01-13T11:02:31;100338.00;;;15.00
20736;BMP180;10528;52.124;5.196;2023-01-13T11:05:23;100345.00;;;15.10
20736;BMP180;10528;52.124;5.196;2023-01-13T11:07:51;100348.00;;;15.10
20736;BMP180;10528;52.124;5.196;2023-01-13T11:10:28;100345.00;;;15.10
20736;BMP180;10528;52.124;5.196;2023-01-13T11:13:07;100344.00;;;15.10
20736;BMP180;10528;52.124;5.196;2023-01-13T11:16:02;100341.00;;;15.10
20736;BMP180;10528;52.124;5.196;2023-01-13T11:18:39;100360.00;;;15.10
20736;BMP180;10528;52.124;5.196;2023-01-13T11:21:23;100347.00;;;15.10
20736;BMP180;10528;52.124;5.196;2023-01-13T11:24:19;100344.00;;;15.10
20736;BMP180;10528;52.124;5.196;2023-01-13T11:26:58;100338.00;;;15.20
20736;BMP180;10528;52.124;5.196;2023-01-13T11:29:37;100343.00;;;15.20
20736;BMP180;10528;52.124;5.196;2023-01-13T11:32:39;100344.00;;;15.20
20736;BMP180;10528;52.124;5.196;2023-01-13T11:35:17;100363.00;;;15.30
20736;BMP180;10528;52.124;5.196;2023-01-13T11:37:53;100371.00;;;15.30
20736;BMP180;10528;52.124;5.196;2023-01-13T11:40:39;100363.00;;;15.20
20736;BMP180;10528;52.124;5.196;2023-01-13T11:43:44;100380.00;;;15.20
20736;BMP180;10528;52.124;5.196;2023-01-13T11:46:13;100382.00;;;15.30
20736;BMP180;10528;52.124;5.196;2023-01-13T11:48:42;100393.00;;;15.40
20736;BMP180;10528;52.124;5.196;2023-01-13T11:51:34;100379.00;;;15.40
20736;BMP180;10528;52.124;5.196;2023-01-13T11:54:31;100382.00;;;15.40
20736;BMP180;10528;52.124;5.196;2023-01-13T11:57:44;100396.00;;;15.40
20736;BMP180;10528;52.124;5.196;2023-01-13T12:03:39;100400.00;;;15.30
20736;BMP180;10528;52.124;5.196;2023-01-13T12:06:19;100394.00;;;15.30
20736;BMP180;10528;52.124;5.196;2023-01-13T12:09:16;100395.00;;;15.30
20736;BMP180;10528;52.124;5.196;2023-01-13T12:12:32;100396.00;;;15.40
20736;BMP180;10528;52.124;5.196;2023-01-13T12:18:35;100386.00;;;15.30
20736;BMP180;10528;52.124;5.196;2023-01-13T12:22:02;100421.00;;;15.30
20736;BMP180;10528;52.124;5.196;2023-01-13T12:24:48;100419.00;;;15.30
20736;BMP180;10528;52.124;5.196;2023-01-13T12:27:44;100414.00;;;15.30
20736;BMP180;10528;52.124;5.196;2023-01-13T12:30:26;100429.00;;;15.20
20736;BMP180;10528;52.124;5.196;2023-01-13T12:36:04;100430.00;;;15.30
20736;BMP180;10528;52.124;5.196;2023-01-13T12:38:43;100431.00;;;15.30
20736;BMP180;10528;52.124;5.196;2023-01-13T12:41:32;100436.00;;;15.10
20736;BMP180;10528;52.124;5.196;2023-01-13T12:44:01;100447.00;;;15.10
20736;BMP180;10528;52.124;5.196;2023-01-13T12:49:33;100455.00;;;15.30
20736;BMP180;10528;52.124;5.196;2023-01-13T12:52:13;100453.00;;;15.40
20736;BMP180;10528;52.124;5.196;2023-01-13T12:57:23;100457.00;;;15.40
20736;BMP180;10528;52.124;5.196;2023-01-13T13:02:38;100462.00;;;15.40
20736;BMP180;10528;52.124;5.196;2023-01-13T13:08:35;100483.00;;;15.50
20736;BMP180;10528;52.124;5.196;2023-01-13T13:11:21;100493.00;;;15.50
20736;BMP180;10528;52.124;5.196;2023-01-13T13:14:12;100496.00;;;15.40
20736;BMP180;10528;52.124;5.196;2023-01-13T13:16:50;100493.00;;;15.40
20736;BMP180;10528;52.124;5.196;2023-01-13T13:30:29;100515.00;;;15.50
20736;BMP180;10528;52.124;5.196;2023-01-13T13:33:32;100516.00;;;15.50
20736;BMP180;10528;52.124;5.196;2023-01-13T13:39:21;100532.00;;;15.40
20736;BMP180;10528;52.124;5.196;2023-01-13T13:42:17;100539.00;;;15.40
20736;BMP180;10528;52.124;5.196;2023-01-13T13:45:24;100531.00;;;15.40
20736;BMP180;10528;52.124;5.196;2023-01-13T13:48:27;100528.00;;;15.40
20736;BMP180;10528;52.124;5.196;2023-01-13T13:51:01;100550.00;;;15.30
20736;BMP180;10528;52.124;5.196;2023-01-13T13:53:38;100543.00;;;15.40
20736;BMP180;10528;52.124;5.196;2023-01-13T13:56:25;100549.00;;;15.50
20736;BMP180;10528;52.124;5.196;2023-01-13T13:58:54;100554.00;;;15.40
20736;BMP180;10528;52.124;5.196;2023-01-13T14:04:18;100561.00;;;15.40
20736;BMP180;10528;52.124;5.196;2023-01-13T14:07:00;100568.00;;;15.50
20736;BMP180;10528;52.124;5.196;2023-01-13T14:09:42;100578.00;;;15.50
20736;BMP180;10528;52.124;5.196;2023-01-13T14:12:25;100579.00;;;15.60
20736;BMP180;10528;52.124;5.196;2023-01-13T14:14:53;100601.00;;;15.60
20736;BMP180;10528;52.124;5.196;2023-01-13T14:17:28;100601.00;;;15.60
20736;BMP180;10528;52.124;5.196;2023-01-13T14:20:05;100610.00;;;15.60
20736;BMP180;10528;52.124;5.196;2023-01-13T14:22:35;100606.00;;;15.60
20736;BMP180;10528;52.124;5.196;2023-01-13T14:25:29;100613.00;;;15.50
20736;BMP180;10528;52.124;5.196;2023-01-13T14:28:02;100619.00;;;15.50
20736;BMP180;10528;52.124;5.196;2023-01-13T14:30:32;100632.00;;;15.50
20736;BMP180;10528;52.124;5.196;2023-01-13T14:32:59;100632.00;;;15.50
20736;BMP180;10528;52.124;5.196;2023-01-13T14:35:27;100636.00;;;15.50
20736;BMP180;10528;52.124;5.196;2023-01-13T14:38:01;100632.00;;;15.50
20736;BMP180;10528;52.124;5.196;2023-01-13T14:43:13;100652.00;;;15.60
20736;BMP180;10528;52.124;5.196;2023-01-13T14:45:58;100627.00;;;15.70
20736;BMP180;10528;52.124;5.196;2023-01-13T14:48:32;100650.00;;;15.70
20736;BMP180;10528;52.124;5.196;2023-01-13T14:51:05;100646.00;;;15.70
20736;BMP180;10528;52.124;5.196;2023-01-13T14:53:44;100673.00;;;15.70
20736;BMP180;10528;52.124;5.196;2023-01-13T14:56:49;100664.00;;;15.70
20736;BMP180;10528;52.124;5.196;2023-01-13T15:02:35;100666.00;;;15.50
20736;BMP180;10528;52.124;5.196;2023-01-13T15:13:06;100689.00;;;15.40
20736;BMP180;10528;52.124;5.196;2023-01-13T15:15:35;100691.00;;;15.50
20736;BMP180;10528;52.124;5.196;2023-01-13T15:18:14;100694.00;;;15.50
20736;BMP180;10528;52.124;5.196;2023-01-13T15:20:41;100709.00;;;15.60
20736;BMP180;10528;52.124;5.196;2023-01-13T15:23:09;100718.00;;;15.60
20736;BMP180;10528;52.124;5.196;2023-01-13T15:25:42;100726.00;;;15.60
20736;BMP180;10528;52.124;5.196;2023-01-13T15:28:24;100745.00;;;15.50
20736;BMP180;10528;52.124;5.196;2023-01-13T15:30:54;100749.00;;;15.50
20736;BMP180;10528;52.124;5.196;2023-01-13T15:33:21;100739.00;;;15.50
20736;BMP180;10528;52.124;5.196;2023-01-13T15:35:51;100757.00;;;15.50
20736;BMP180;10528;52.124;5.196;2023-01-13T15:38:22;100753.00;;;15.50
20736;BMP180;10528;52.124;5.196;2023-01-13T15:40:50;100757.00;;;15.50
20736;BMP180;10528;52.124;5.196;2023-01-13T15:43:21;100752.00;;;15.40
20736;BMP180;10528;52.124;5.196;2023-01-13T15:46:16;100763.00;;;15.40
20736;BMP180;10528;52.124;5.196;2023-01-13T15:49:10;100752.00;;;15.40
20736;BMP180;10528;52.124;5.196;2023-01-13T15:51:39;100762.00;;;15.40
20736;BMP180;10528;52.124;5.196;2023-01-13T15:54:09;100775.00;;;15.40
20736;BMP180;10528;52.124;5.196;2023-01-13T15:56:38;100779.00;;;15.40
20736;BMP180;10528;52.124;5.196;2023-01-13T15:59:14;100784.00;;;15.40
20736;BMP180;10528;52.124;5.196;2023-01-13T16:01:42;100783.00;;;15.40
20736;BMP180;10528;52.124;5.196;2023-01-13T16:04:09;100789.00;;;15.40
20736;BMP180;10528;52.124;5.196;2023-01-13T16:06:36;100798.00;;;15.40
20736;BMP180;10528;52.124;5.196;2023-01-13T16:09:04;100792.00;;;15.40
20736;BMP180;10528;52.124;5.196;2023-01-13T16:11:31;100797.00;;;15.40
20736;BMP180;10528;52.124;5.196;2023-01-13T16:13:58;100797.00;;;15.40
20736;BMP180;10528;52.124;5.196;2023-01-13T16:16:27;100805.00;;;15.40